Location Glendale, AZ, US

ob KWR6634 190100Z AUTO 27003G08KT FEW180 38/15 A2957 RMK SLPNO 

2018.09.19 0100 UTC
Wind from the W (274 degrees) at 4.0 MPH (3 KT) gusting to 9.0 MPH (8 KT)
Visibility    Mile(s)
Sky Conditions  partly cloudy
Temperature 100.80 F (38 C)
Dew Point 59.67 F (15 C)
Relative Humidity 26%
Pressure   29.57 in. Hg (1001 hPa)
Rain  0.00 in.
Daily Rain  in.

Station Name  My Glendale Arizona Weather Station
Longitude, Latitude  -112.20133199999998, 33.58645
Elevation 1180
Station URL www.myglendalewxs.com
Software Type VWS V15.00